Time;durP1;ratioP1;P1;durP2;ratioP2;P2;SDS_P1;SDS_P2;PMS_P1;PMS_P2;Temp;Humidity;BMP_temperature;BMP_pressure;BME280_temperature;BME280_humidity;BME280_pressure;Samples;Min_cycle;Max_cycle;Signal;HPM_P1;HPM_P2
2023/09/26 00:00:28;;;;;;;13.20;10.00;;;;;;;20.43;68.44;101742.55;105365;1255;72630;-54
2023/09/26 00:02:54;;;;;;;19.00;10.70;;;;;;;20.39;68.50;101739.77;105342;1254;60847;-55
2023/09/26 00:05:23;;;;;;;15.00;9.90;;;;;;;20.32;68.57;101738.81;105394;1257;59637;-57
2023/09/26 00:07:51;;;;;;;15.00;10.00;;;;;;;20.28;68.59;101739.63;106205;1254;62832;-57
2023/09/26 00:10:19;;;;;;;14.20;10.40;;;;;;;20.25;68.73;101739.02;105861;1256;63312;-56
2023/09/26 00:12:48;;;;;;;13.50;10.20;;;;;;;20.24;68.88;101738.22;106238;1251;72716;-56
2023/09/26 00:15:16;;;;;;;16.40;10.70;;;;;;;20.24;68.93;101733.37;105328;1251;61949;-54
2023/09/26 00:17:44;;;;;;;17.30;10.50;;;;;;;20.23;68.99;101733.83;105347;1252;60031;-55
2023/09/26 00:20:24;;;;;;;13.30;10.80;;;;;;;20.20;69.02;101736.67;105279;1257;66415;-56
2023/09/26 00:22:52;;;;;;;16.60;10.30;;;;;;;20.13;69.06;101735.36;105418;1257;61426;-56
2023/09/26 00:25:21;;;;;;;14.90;11.40;;;;;;;20.10;69.15;101733.77;105353;1254;63676;-56
2023/09/26 00:27:49;;;;;;;19.00;10.70;;;;;;;20.07;69.30;101733.14;106047;1254;59665;-58
2023/09/26 00:30:17;;;;;;;13.90;10.30;;;;;;;20.04;69.31;101736.09;106123;1254;59525;-57
2023/09/26 00:32:45;;;;;;;15.90;10.20;;;;;;;20.03;69.43;101740.83;105924;1257;64295;-57
2023/09/26 00:35:13;;;;;;;18.60;11.10;;;;;;;20.01;69.50;101736.34;105338;1254;61440;-57
2023/09/26 00:37:41;;;;;;;17.20;11.30;;;;;;;19.98;69.58;101733.29;105353;1253;63726;-56
2023/09/26 00:40:10;;;;;;;14.80;11.40;;;;;;;19.96;69.70;101737.81;105475;1253;60365;-56
2023/09/26 00:42:38;;;;;;;14.40;10.80;;;;;;;19.91;69.70;101735.62;105597;1254;59566;-52
2023/09/26 00:45:06;;;;;;;16.50;10.20;;;;;;;19.89;69.81;101734.75;105601;1251;64190;-53
2023/09/26 00:47:35;;;;;;;13.40;10.00;;;;;;;19.87;69.82;101733.48;105362;1251;61518;-54
2023/09/26 00:50:03;;;;;;;16.40;10.80;;;;;;;19.86;69.97;101734.48;105459;1256;63721;-52
2023/09/26 00:52:31;;;;;;;14.80;10.30;;;;;;;19.85;70.08;101740.05;105717;1254;59823;-50
2023/09/26 00:54:58;;;;;;;12.30;10.50;;;;;;;19.86;69.93;101743.89;105449;1253;59778;-50
2023/09/26 00:57:26;;;;;;;14.40;11.50;;;;;;;19.81;69.96;101744.15;105323;1251;64435;-51
2023/09/26 00:59:54;;;;;;;15.00;11.20;;;;;;;19.76;69.98;101746.48;105497;1254;61852;-52
2023/09/26 01:02:22;;;;;;;16.60;11.20;;;;;;;19.69;70.23;101748.98;106707;1253;64246;-52
2023/09/26 01:04:49;;;;;;;16.90;11.10;;;;;;;19.66;70.17;101748.45;105316;1254;59749;-54
2023/09/26 01:07:17;;;;;;;15.30;10.80;;;;;;;19.65;70.23;101748.20;105520;1251;59816;-53
2023/09/26 01:09:45;;;;;;;16.30;10.30;;;;;;;19.64;70.58;101749.52;105157;1254;64285;-52
2023/09/26 01:12:12;;;;;;;13.90;10.30;;;;;;;19.63;70.63;101750.02;105202;1251;61348;-54
2023/09/26 01:14:42;;;;;;;15.40;11.50;;;;;;;19.62;70.54;101750.86;106117;1255;63916;-52
2023/09/26 01:17:10;;;;;;;15.70;11.50;;;;;;;19.59;70.50;101754.52;105295;1257;59167;-54
2023/09/26 01:19:37;;;;;;;17.60;12.60;;;;;;;19.56;70.55;101751.03;105344;1257;59552;-53
2023/09/26 01:22:05;;;;;;;16.00;11.60;;;;;;;19.52;70.64;101750.54;105498;1251;63226;-53
2023/09/26 01:24:35;;;;;;;16.80;10.90;;;;;;;19.48;70.82;101747.92;105485;1257;60376;-53
2023/09/26 01:27:02;;;;;;;14.90;10.70;;;;;;;19.45;70.90;101746.20;105255;1257;66561;-53
2023/09/26 01:29:30;;;;;;;15.70;11.20;;;;;;;19.44;70.89;101745.61;105587;1252;59650;-50
2023/09/26 01:31:57;;;;;;;16.40;10.40;;;;;;;19.44;70.95;101744.52;105568;1251;59704;-53
2023/09/26 01:34:25;;;;;;;16.60;11.60;;;;;;;19.45;70.88;101744.95;105812;1253;64557;-51
2023/09/26 01:36:54;;;;;;;17.10;11.20;;;;;;;19.46;70.95;101743.42;105458;1251;61500;-53
2023/09/26 01:39:22;;;;;;;15.00;11.70;;;;;;;19.47;71.01;101743.19;105461;1251;62458;-53
2023/09/26 01:41:49;;;;;;;17.50;12.40;;;;;;;19.44;71.04;101749.02;105426;1254;59727;-53
2023/09/26 01:44:17;;;;;;;15.20;11.60;;;;;;;19.40;70.97;101749.43;105182;1257;59810;-54
2023/09/26 01:46:44;;;;;;;22.00;11.60;;;;;;;19.36;70.83;101750.52;105500;1257;64105;-52
2023/09/26 01:49:12;;;;;;;13.30;10.40;;;;;;;19.32;70.92;101754.63;106249;1254;60248;-54
2023/09/26 01:51:40;;;;;;;15.20;11.60;;;;;;;19.29;71.14;101752.39;105258;1257;63738;-53
2023/09/26 01:54:07;;;;;;;16.90;11.80;;;;;;;19.31;71.04;101752.92;105445;1257;59769;-52
2023/09/26 01:56:35;;;;;;;17.10;12.60;;;;;;;19.34;71.24;101755.35;105259;1251;59714;-53
2023/09/26 01:59:02;;;;;;;17.20;12.80;;;;;;;19.37;71.26;101760.69;105210;1254;64240;-53
2023/09/26 02:01:30;;;;;;;20.70;12.80;;;;;;;19.37;71.11;101760.93;105304;1258;61514;-53
2023/09/26 02:03:58;;;;;;;17.70;14.00;;;;;;;19.33;71.13;101765.02;105444;1254;63685;-53
2023/09/26 02:06:25;;;;;;;17.90;13.20;;;;;;;19.33;71.14;101765.59;105243;1254;59774;-47
2023/09/26 02:08:53;;;;;;;19.60;13.00;;;;;;;19.31;70.95;101769.06;105831;1256;59327;-51
2023/09/26 02:11:21;;;;;;;22.50;14.00;;;;;;;19.29;71.08;101772.68;106071;1256;64059;-61
2023/09/26 02:13:48;;;;;;;18.50;13.20;;;;;;;19.28;71.26;101779.19;105439;1256;60461;-53
2023/09/26 02:16:17;;;;;;;20.20;14.50;;;;;;;19.31;71.34;101781.77;106003;1254;64232;-66
2023/09/26 02:18:45;;;;;;;19.40;14.30;;;;;;;19.34;71.40;101778.41;105372;1257;59787;-52
2023/09/26 02:21:16;;;;;;;15.80;13.20;;;;;;;19.34;71.25;101775.41;105242;1254;59762;-48
2023/09/26 02:23:44;;;;;;;17.90;13.70;;;;;;;19.31;71.00;101779.41;105451;1257;64199;-54
2023/09/26 02:26:13;;;;;;;19.80;12.20;;;;;;;19.29;71.15;101781.92;105559;1254;61335;-49
2023/09/26 02:28:41;;;;;;;18.30;12.80;;;;;;;19.32;71.14;101783.65;105281;1254;62447;-50
2023/09/26 02:31:14;;;;;;;15.80;12.90;;;;;;;19.33;71.18;101780.86;105464;1257;60453;-49
2023/09/26 02:33:42;;;;;;;17.60;12.40;;;;;;;19.31;71.12;101778.88;105422;1256;60625;-50
2023/09/26 02:36:09;;;;;;;19.10;13.50;;;;;;;19.29;71.21;101775.38;105228;1256;66013;-53
2023/09/26 02:38:37;;;;;;;19.30;12.50;;;;;;;19.30;71.23;101779.13;105398;1251;60383;-50
2023/09/26 02:41:04;;;;;;;17.70;12.60;;;;;;;19.33;71.14;101780.12;105393;1254;64305;-53
2023/09/26 02:43:32;;;;;;;16.80;12.10;;;;;;;19.34;70.90;101781.31;105437;1253;60787;-53
2023/09/26 02:46:01;;;;;;;16.00;13.40;;;;;;;19.35;71.06;101782.13;105424;1257;60425;-52
2023/09/26 02:48:30;;;;;;;15.30;12.70;;;;;;;19.36;71.13;101782.84;105649;1253;64931;-53
2023/09/26 02:51:04;;;;;;;18.50;13.70;;;;;;;19.34;71.18;101788.92;105470;1251;61306;-58
2023/09/26 02:53:32;;;;;;;16.90;13.00;;;;;;;19.33;71.10;101791.00;105815;1255;64153;-58
2023/09/26 02:55:59;;;;;;;14.60;12.20;;;;;;;19.31;70.82;101791.84;105306;1259;60543;-53
2023/09/26 02:58:27;;;;;;;17.50;11.90;;;;;;;19.29;70.95;101793.69;105232;1252;60652;-51
2023/09/26 03:00:55;;;;;;;17.50;11.20;;;;;;;19.27;70.93;101799.70;105462;1251;64869;-59
2023/09/26 03:03:22;;;;;;;17.50;12.90;;;;;;;19.28;70.90;101801.44;105246;1257;60456;-59
2023/09/26 03:05:52;;;;;;;14.80;12.40;;;;;;;19.28;70.92;101799.08;105829;1254;64425;-60
2023/09/26 03:08:20;;;;;;;17.80;12.90;;;;;;;19.27;70.98;101798.27;105986;1253;60513;-59
2023/09/26 03:10:48;;;;;;;14.00;11.10;;;;;;;19.27;71.03;101800.23;105338;1251;60313;-59
2023/09/26 03:13:15;;;;;;;16.00;11.90;;;;;;;19.25;70.92;101802.98;105280;1251;64913;-56
2023/09/26 03:15:43;;;;;;;15.10;12.50;;;;;;;19.25;70.86;101802.38;105456;1256;61982;-57
2023/09/26 03:18:10;;;;;;;14.20;11.20;;;;;;;19.27;70.82;101807.15;105339;1253;66431;-58
2023/09/26 03:20:38;;;;;;;18.90;13.20;;;;;;;19.30;70.85;101809.05;105430;1253;60494;-47
2023/09/26 03:23:06;;;;;;;13.40;11.00;;;;;;;19.32;70.83;101810.08;105441;1253;60501;-54
2023/09/26 03:25:34;;;;;;;14.10;11.30;;;;;;;19.34;70.53;101809.80;105295;1257;64069;-58
2023/09/26 03:28:03;;;;;;;14.80;12.00;;;;;;;19.33;70.53;101813.63;105478;1251;61367;-52
2023/09/26 03:30:31;;;;;;;16.00;12.10;;;;;;;19.30;70.58;101811.33;105778;1255;74997;-58
2023/09/26 03:32:58;;;;;;;14.40;11.10;;;;;;;19.31;70.67;101814.47;105447;1254;60545;-59
2023/09/26 03:35:26;;;;;;;15.10;11.40;;;;;;;19.32;70.44;101816.89;105356;1251;60581;-60
2023/09/26 03:37:54;;;;;;;16.80;10.70;;;;;;;19.31;70.21;101818.70;105481;1257;65049;-59
2023/09/26 03:40:23;;;;;;;15.20;11.80;;;;;;;19.32;70.36;101821.29;105360;1254;63416;-56
2023/09/26 03:42:50;;;;;;;16.50;12.10;;;;;;;19.39;70.49;101821.39;105463;1251;62610;-59
2023/09/26 03:45:18;;;;;;;20.40;15.50;;;;;;;19.45;70.47;101820.63;105377;1254;61611;-59
2023/09/26 03:47:46;;;;;;;16.60;13.00;;;;;;;19.47;70.13;101815.75;105420;1254;60432;-59
2023/09/26 03:50:13;;;;;;;17.50;10.80;;;;;;;19.48;69.91;101815.20;105290;1251;64902;-59
2023/09/26 03:52:41;;;;;;;16.50;10.60;;;;;;;19.52;69.74;101814.48;105172;1251;61329;-58
2023/09/26 03:55:08;;;;;;;13.20;10.00;;;;;;;19.57;69.45;101819.32;105384;1257;63726;-58
2023/09/26 03:57:36;;;;;;;14.00;9.80;;;;;;;19.57;69.07;101819.68;105052;1251;60455;-59
2023/09/26 04:00:15;;;;;;;13.60;10.50;;;;;;;19.55;68.96;101826.48;105293;1251;60886;-59
2023/09/26 04:02:44;;;;;;;13.20;10.90;;;;;;;19.51;69.05;101821.54;105485;1252;72866;-59
2023/09/26 04:05:11;;;;;;;14.80;10.10;;;;;;;19.48;69.20;101823.73;108034;1251;61362;-58
2023/09/26 04:07:39;;;;;;;14.00;11.70;;;;;;;19.46;69.10;101827.06;105297;1254;63765;-58
2023/09/26 04:10:07;;;;;;;17.10;11.20;;;;;;;19.48;68.97;101827.09;105261;1251;60447;-59
2023/09/26 04:12:35;;;;;;;14.00;9.70;;;;;;;19.48;68.90;101825.88;105754;1253;60353;-57
2023/09/26 04:15:03;;;;;;;13.90;10.80;;;;;;;19.47;68.74;101824.89;105631;1251;65105;-57
2023/09/26 04:17:30;;;;;;;14.80;12.50;;;;;;;19.43;68.74;101824.57;105787;1251;61346;-55
2023/09/26 04:19:59;;;;;;;13.10;11.30;;;;;;;19.36;68.87;101829.48;105257;1251;62425;-55
2023/09/26 04:22:28;;;;;;;12.50;10.60;;;;;;;19.30;69.07;101829.64;105250;1252;60680;-55
2023/09/26 04:24:56;;;;;;;18.90;11.10;;;;;;;19.30;69.01;101824.70;105648;1256;60428;-54
2023/09/26 04:27:23;;;;;;;12.70;10.20;;;;;;;19.31;69.04;101831.71;105460;1251;64967;-55
2023/09/26 04:29:52;;;;;;;13.50;9.10;;;;;;;19.33;69.15;101835.34;105257;1256;61384;-50
2023/09/26 04:32:19;;;;;;;15.20;11.00;;;;;;;19.35;69.17;101834.71;105161;1254;63783;-58
2023/09/26 04:34:47;;;;;;;14.80;11.20;;;;;;;19.37;69.24;101832.60;105212;1254;60657;-62
2023/09/26 04:37:16;;;;;;;15.20;11.50;;;;;;;19.37;69.18;101835.27;105967;1257;60425;-61
2023/09/26 04:39:43;;;;;;;14.30;11.20;;;;;;;19.35;69.16;101831.90;105199;1251;67735;-61
2023/09/26 04:42:11;;;;;;;13.80;10.70;;;;;;;19.37;69.06;101832.05;105238;1251;61387;-62
2023/09/26 04:44:38;;;;;;;16.50;10.10;;;;;;;19.42;69.05;101836.35;105337;1253;63729;-63
2023/09/26 04:47:06;;;;;;;13.50;11.10;;;;;;;19.49;69.12;101837.70;105352;1251;60477;-61
2023/09/26 04:49:34;;;;;;;13.70;10.70;;;;;;;19.55;69.01;101835.14;105163;1251;60558;-59
2023/09/26 04:52:02;;;;;;;15.20;10.90;;;;;;;19.59;68.86;101838.17;105519;1256;64945;-62
2023/09/26 04:54:31;;;;;;;13.90;10.90;;;;;;;19.61;68.82;101845.48;105569;1251;63324;-61
2023/09/26 04:56:59;;;;;;;16.10;11.10;;;;;;;19.59;68.50;101846.91;105343;1251;62408;-62
2023/09/26 04:59:27;;;;;;;15.70;11.50;;;;;;;19.56;68.34;101845.73;105305;1254;60477;-64
2023/09/26 05:01:55;;;;;;;12.90;10.50;;;;;;;19.56;68.27;101846.48;105923;1251;60472;-60
2023/09/26 05:04:22;;;;;;;13.40;10.50;;;;;;;19.57;68.24;101850.13;105271;1253;63887;-61
2023/09/26 05:06:50;;;;;;;13.30;10.50;;;;;;;19.62;68.38;101853.00;105282;1257;60402;-58
2023/09/26 05:09:17;;;;;;;13.90;11.10;;;;;;;19.63;68.37;101856.41;105281;1254;62423;-60
2023/09/26 05:11:45;;;;;;;14.50;11.30;;;;;;;19.62;68.09;101853.77;105238;1253;60696;-55
2023/09/26 05:14:12;;;;;;;13.80;10.40;;;;;;;19.60;68.16;101857.88;105246;1256;60489;-51
2023/09/26 05:16:41;;;;;;;14.90;11.50;;;;;;;19.62;68.10;101858.54;105155;1257;65298;-54
2023/09/26 05:19:09;;;;;;;14.60;12.00;;;;;;;19.63;68.05;101859.99;106141;1253;61657;-51
2023/09/26 05:21:37;;;;;;;15.00;11.60;;;;;;;19.65;68.14;101860.72;105178;1254;63877;-53
2023/09/26 05:24:05;;;;;;;16.30;11.60;;;;;;;19.69;68.08;101865.54;109290;1251;60758;-54
2023/09/26 05:26:33;;;;;;;17.30;12.00;;;;;;;19.70;68.09;101866.29;109283;1251;58123;-54
2023/09/26 05:29:00;;;;;;;15.00;12.10;;;;;;;19.70;68.17;101863.86;109296;1251;72994;-54
2023/09/26 05:31:31;;;;;;;16.00;11.80;;;;;;;19.69;68.26;101863.77;109389;1251;60211;-54
2023/09/26 05:33:59;;;;;;;13.00;10.80;;;;;;;19.76;68.02;101867.02;109289;1256;62509;-53
2023/09/26 05:36:27;;;;;;;17.70;11.40;;;;;;;19.81;67.83;101865.96;109226;1253;58164;-53
2023/09/26 05:38:58;;;;;;;14.10;11.10;;;;;;;19.91;68.02;101863.98;106854;1251;60484;-52
2023/09/26 05:41:26;;;;;;;14.50;11.60;;;;;;;20.02;67.86;101864.52;105537;1256;67627;-53
2023/09/26 05:43:54;;;;;;;14.50;12.00;;;;;;;20.12;67.70;101864.75;105199;1251;61370;-51
2023/09/26 05:46:21;;;;;;;13.90;11.90;;;;;;;20.17;67.23;101863.73;105305;1254;63942;-51
2023/09/26 05:48:50;;;;;;;15.00;12.00;;;;;;;20.19;66.88;101861.23;105320;1251;60413;-50
2023/09/26 05:51:17;;;;;;;15.40;11.10;;;;;;;20.20;66.68;101861.64;109241;1251;58386;-52
2023/09/26 05:53:45;;;;;;;16.20;11.70;;;;;;;20.23;66.46;101859.27;109340;1250;65003;-52
2023/09/26 05:56:12;;;;;;;14.00;11.90;;;;;;;20.25;66.39;101863.77;105794;1251;61429;-50
2023/09/26 05:58:40;;;;;;;16.90;13.50;;;;;;;20.26;66.50;101864.02;105345;1251;63701;-51
2023/09/26 06:01:08;;;;;;;13.90;11.30;;;;;;;20.26;66.53;101863.47;105096;1251;61727;-52
2023/09/26 06:03:36;;;;;;;17.30;12.90;;;;;;;20.27;66.50;101863.69;105185;1251;60451;-46
2023/09/26 06:06:04;;;;;;;14.00;11.10;;;;;;;20.29;66.12;101864.92;104949;1257;63640;-46
2023/09/26 06:08:33;;;;;;;15.70;12.00;;;;;;;20.33;66.08;101865.66;109293;1251;61370;-51
2023/09/26 06:11:02;;;;;;;15.00;12.90;;;;;;;20.37;65.98;101862.70;109295;1251;62775;-50
2023/09/26 06:13:31;;;;;;;13.90;11.90;;;;;;;20.39;65.84;101865.71;106627;1251;60530;-49
2023/09/26 06:15:58;;;;;;;17.40;12.80;;;;;;;20.38;65.68;101864.91;105856;1253;61660;-49
2023/09/26 06:18:27;;;;;;;16.80;12.40;;;;;;;20.40;65.98;101868.98;105616;1257;65403;-50
2023/09/26 06:20:54;;;;;;;15.40;11.90;;;;;;;20.48;65.81;101869.12;105388;1252;61483;-51
2023/09/26 06:23:22;;;;;;;17.10;11.00;;;;;;;20.53;65.63;101870.02;106065;1251;63756;-47
2023/09/26 06:25:57;;;;;;;17.30;12.70;;;;;;;20.58;65.42;101869.73;105403;1254;60444;-46
2023/09/26 06:28:25;;;;;;;17.00;13.00;;;;;;;20.59;65.10;101873.17;105930;1256;60369;-48
2023/09/26 06:30:53;;;;;;;15.70;12.90;;;;;;;20.57;64.92;101875.23;106756;1251;65080;-49
2023/09/26 06:33:20;;;;;;;19.60;14.20;;;;;;;20.55;64.69;101874.70;105348;1254;61388;-48
2023/09/26 06:35:48;;;;;;;18.30;12.80;;;;;;;20.50;64.82;101876.56;105999;1254;63768;-51
2023/09/26 06:38:16;;;;;;;16.80;12.40;;;;;;;20.52;64.53;101876.21;106110;1251;60532;-50
2023/09/26 06:40:43;;;;;;;16.30;12.60;;;;;;;20.54;64.42;101882.92;105228;1251;60463;-50
2023/09/26 06:43:10;;;;;;;18.30;13.20;;;;;;;20.58;64.46;101881.55;105404;1256;65011;-50
2023/09/26 06:45:39;;;;;;;16.30;13.00;;;;;;;20.61;64.62;101881.61;105290;1256;60498;-50
2023/09/26 06:48:07;;;;;;;16.70;12.70;;;;;;;20.63;64.66;101879.60;107036;1257;62425;-53
2023/09/26 06:50:41;;;;;;;20.90;12.50;;;;;;;20.69;64.81;101878.15;105541;1251;60539;-51
2023/09/26 06:53:09;;;;;;;14.50;11.50;;;;;;;20.79;64.35;101878.91;105392;1251;60494;-50
2023/09/26 06:55:39;;;;;;;16.90;12.70;;;;;;;20.90;64.02;101874.45;105510;1257;64865;-51
2023/09/26 06:58:07;;;;;;;15.60;12.20;;;;;;;20.97;63.92;101878.19;105556;1257;61303;-48
2023/09/26 07:00:37;;;;;;;17.90;13.20;;;;;;;21.04;63.79;101881.45;105534;1254;62442;-60
2023/09/26 07:03:05;;;;;;;18.80;14.00;;;;;;;21.08;63.47;101882.14;105574;1254;60562;-57
2023/09/26 07:05:33;;;;;;;15.30;12.40;;;;;;;21.10;63.14;101879.39;105315;1251;60514;-58
2023/09/26 07:08:00;;;;;;;16.20;12.80;;;;;;;21.18;62.86;101876.27;105295;1252;63702;-58
2023/09/26 07:10:28;;;;;;;17.90;13.30;;;;;;;21.25;62.86;101874.78;105258;1251;61395;-60
2023/09/26 07:12:55;;;;;;;17.90;14.20;;;;;;;21.34;62.73;101874.97;105275;1254;63769;-58
2023/09/26 07:15:28;;;;;;;18.90;15.10;;;;;;;21.34;62.16;101878.05;105287;1254;60650;-60
2023/09/26 07:17:55;;;;;;;16.30;13.90;;;;;;;21.25;62.47;101874.48;105263;1251;60438;-57
2023/09/26 07:20:23;;;;;;;19.10;13.90;;;;;;;21.18;62.65;101875.00;104491;1251;64939;-58
2023/09/26 07:22:51;;;;;;;15.00;13.00;;;;;;;21.12;62.49;101875.46;106741;1251;62495;-59
2023/09/26 07:25:19;;;;;;;16.10;13.00;;;;;;;21.09;62.43;101875.17;105342;1257;62560;-60
2023/09/26 07:27:47;;;;;;;18.20;13.70;;;;;;;21.10;62.34;101875.69;105429;1254;61701;-56
2023/09/26 07:30:15;;;;;;;17.60;13.20;;;;;;;21.09;62.13;101875.97;105366;1257;59786;-57
2023/09/26 07:32:42;;;;;;;16.00;12.90;;;;;;;21.06;62.21;101871.54;105235;1257;76098;-59
2023/09/26 07:35:10;;;;;;;15.40;13.30;;;;;;;21.06;61.95;101872.64;105321;1256;60363;-58
2023/09/26 07:37:37;;;;;;;17.00;12.90;;;;;;;21.06;61.66;101873.40;105304;1255;64206;-58
2023/09/26 07:40:08;;;;;;;16.20;13.50;;;;;;;21.09;61.73;101876.23;105307;1252;60449;-62
2023/09/26 07:42:37;;;;;;;20.10;13.00;;;;;;;21.13;61.29;101875.52;109326;1252;58527;-58
2023/09/26 07:45:05;;;;;;;17.90;14.50;;;;;;;21.11;61.33;101875.14;109313;1251;65040;-56
2023/09/26 07:47:32;;;;;;;19.30;13.50;;;;;;;21.11;61.63;101877.16;109278;1251;71365;-55
2023/09/26 07:50:01;;;;;;;19.80;14.40;;;;;;;21.14;61.68;101877.22;109191;1251;62415;-57
2023/09/26 07:52:28;;;;;;;17.00;12.50;;;;;;;21.18;61.59;101875.50;109298;1253;58330;-57
2023/09/26 07:54:56;;;;;;;15.70;12.40;;;;;;;21.25;61.55;101873.23;109279;1251;58176;-56
2023/09/26 07:57:24;;;;;;;15.60;12.20;;;;;;;21.32;61.48;101873.38;107579;1252;64925;-57
2023/09/26 07:59:51;;;;;;;15.20;11.80;;;;;;;21.35;61.33;101871.16;105431;1257;72307;-57
2023/09/26 08:02:20;;;;;;;17.40;12.90;;;;;;;21.34;61.29;101867.31;105375;1251;63981;-58
2023/09/26 08:04:48;;;;;;;22.30;14.70;;;;;;;21.32;61.09;101862.55;106076;1256;60644;-57
2023/09/26 08:07:16;;;;;;;15.30;11.20;;;;;;;21.29;61.06;101862.57;105329;1253;60451;-57
2023/09/26 08:09:43;;;;;;;13.50;10.50;;;;;;;21.35;61.25;101863.46;105376;1256;64969;-58
2023/09/26 08:12:11;;;;;;;14.80;12.80;;;;;;;21.41;61.39;101861.96;105325;1255;61306;-57
2023/09/26 08:14:39;;;;;;;13.80;11.90;;;;;;;21.45;60.86;101862.81;105533;1252;63766;-55
2023/09/26 08:17:06;;;;;;;21.70;13.00;;;;;;;21.47;60.33;101859.79;105416;1251;60969;-46
2023/09/26 08:19:34;;;;;;;16.60;13.10;;;;;;;21.47;60.17;101855.24;105616;1256;60531;-46
2023/09/26 08:22:02;;;;;;;14.80;12.90;;;;;;;21.50;60.00;101851.60;109123;1251;65364;-46
2023/09/26 08:24:29;;;;;;;18.10;12.60;;;;;;;21.52;59.79;101851.35;105321;1251;61530;-47
2023/09/26 08:26:57;;;;;;;13.50;11.30;;;;;;;21.56;59.78;101846.48;105316;1251;63991;-47
2023/09/26 08:29:25;;;;;;;19.70;11.70;;;;;;;21.64;59.56;101846.70;105715;1256;60374;-48
2023/09/26 08:31:52;;;;;;;16.80;11.70;;;;;;;21.74;59.37;101844.82;105306;1257;60360;-46
2023/09/26 08:34:20;;;;;;;17.80;13.00;;;;;;;21.81;59.20;101841.41;105364;1251;65925;-47
2023/09/26 08:36:48;;;;;;;15.30;11.60;;;;;;;21.88;59.18;101837.82;105426;1251;61284;-48
2023/09/26 08:39:15;;;;;;;15.30;12.60;;;;;;;21.96;59.15;101838.08;105379;1251;62458;-47
2023/09/26 08:41:43;;;;;;;22.90;11.80;;;;;;;22.02;59.16;101840.21;105487;1251;60450;-47
2023/09/26 08:44:11;;;;;;;13.00;11.40;;;;;;;22.11;59.05;101840.63;105541;1257;60367;-46
2023/09/26 08:46:39;;;;;;;15.40;12.00;;;;;;;22.23;58.47;101838.23;105345;1256;65021;-47
2023/09/26 08:49:07;;;;;;;14.30;11.50;;;;;;;22.35;57.95;101838.38;106339;1254;60816;-49
2023/09/26 08:51:35;;;;;;;14.80;11.00;;;;;;;22.44;57.67;101839.56;105137;1254;63855;-47
2023/09/26 08:54:03;;;;;;;19.70;12.30;;;;;;;22.52;57.84;101837.15;105454;1251;60597;-47
2023/09/26 08:56:33;;;;;;;16.80;12.30;;;;;;;22.60;57.43;101832.50;105560;1257;60501;-47
2023/09/26 08:59:01;;;;;;;14.40;12.80;;;;;;;22.67;57.48;101831.23;109277;1253;65022;-49
2023/09/26 09:01:30;;;;;;;15.20;11.30;;;;;;;22.73;56.95;101829.61;106384;1252;61470;-47
2023/09/26 09:03:58;;;;;;;14.80;11.20;;;;;;;22.78;56.52;101828.66;106737;1257;63869;-48
2023/09/26 09:06:26;;;;;;;16.10;12.10;;;;;;;22.79;55.91;101828.59;105662;1251;60398;-48
2023/09/26 09:09:09;;;;;;;15.30;11.20;;;;;;;22.80;56.06;101824.04;105401;1257;60597;-47
2023/09/26 09:11:37;;;;;;;15.60;11.80;;;;;;;22.87;56.22;101822.39;105518;1257;64917;-47
2023/09/26 09:14:06;;;;;;;13.60;10.70;;;;;;;22.95;56.33;101824.34;105446;1254;61587;-47
2023/09/26 09:16:33;;;;;;;13.60;12.20;;;;;;;23.00;56.12;101824.23;105667;1254;63746;-48
2023/09/26 09:19:02;;;;;;;15.90;11.90;;;;;;;23.01;55.86;101826.42;105704;1252;60538;-49
2023/09/26 09:21:31;;;;;;;14.80;11.80;;;;;;;23.05;55.29;101828.09;105029;1256;60079;-48
2023/09/26 09:24:02;;;;;;;17.40;12.90;;;;;;;23.08;55.10;101828.84;109397;1251;64962;-48
2023/09/26 09:26:32;;;;;;;16.10;12.50;;;;;;;23.12;55.30;101826.99;109307;1251;61594;-48
2023/09/26 09:29:19;;;;;;;13.60;11.80;;;;;;;23.18;55.21;101821.35;109293;1251;65315;-47
2023/09/26 09:31:47;;;;;;;16.10;12.20;;;;;;;23.24;55.03;101817.41;106977;1252;60414;-49
2023/09/26 09:34:15;;;;;;;18.40;11.60;;;;;;;23.28;54.80;101816.48;106085;1251;60582;-49
2023/09/26 09:36:44;;;;;;;16.80;10.90;;;;;;;23.33;54.72;101818.19;108621;1257;65461;-46
2023/09/26 09:39:12;;;;;;;17.60;11.90;;;;;;;23.45;54.69;101817.11;105433;1254;72548;-50
2023/09/26 09:41:40;;;;;;;19.40;12.30;;;;;;;23.56;53.75;101818.00;105395;1256;64885;-48
2023/09/26 09:44:08;;;;;;;15.00;11.10;;;;;;;23.63;53.54;101819.20;105343;1254;60492;-46
2023/09/26 09:46:38;;;;;;;14.70;11.40;;;;;;;23.67;53.40;101818.20;105300;1256;60363;-48
2023/09/26 09:49:10;;;;;;;15.10;12.70;;;;;;;23.72;53.35;101819.76;105513;1254;64868;-46
2023/09/26 09:51:42;;;;;;;15.80;12.40;;;;;;;23.79;53.35;101813.20;106350;1251;61529;-48
2023/09/26 09:54:13;;;;;;;16.30;11.70;;;;;;;23.85;53.35;101815.40;105330;1256;62575;-47
2023/09/26 09:56:45;;;;;;;14.50;11.30;;;;;;;23.89;53.39;101812.99;108615;1253;60558;-47
2023/09/26 09:59:12;;;;;;;16.40;12.70;;;;;;;23.93;53.45;101813.11;105507;1256;60504;-47
2023/09/26 10:01:45;;;;;;;16.90;13.30;;;;;;;24.01;53.58;101812.77;105217;1258;65532;-48
2023/09/26 10:04:15;;;;;;;18.10;12.20;;;;;;;24.07;53.00;101807.85;105507;1254;60462;-47
2023/09/26 10:06:43;;;;;;;16.00;12.30;;;;;;;24.12;52.56;101810.36;106321;1256;74971;-51
2023/09/26 10:09:12;;;;;;;15.00;11.50;;;;;;;24.15;52.34;101807.52;105236;1254;61058;-47
2023/09/26 10:11:40;;;;;;;18.80;12.40;;;;;;;24.18;52.18;101807.50;106226;1251;60596;-47
2023/09/26 10:14:12;;;;;;;16.50;12.10;;;;;;;24.21;51.83;101804.62;105013;1251;65407;-47
2023/09/26 10:16:40;;;;;;;16.90;12.40;;;;;;;24.23;51.37;101802.33;107946;1251;62730;-47
2023/09/26 10:19:08;;;;;;;15.50;12.20;;;;;;;24.25;51.55;101804.33;105482;1255;63698;-46
2023/09/26 10:21:36;;;;;;;15.80;10.90;;;;;;;24.31;51.87;101806.92;105192;1258;60322;-47
2023/09/26 10:24:09;;;;;;;15.70;11.30;;;;;;;24.42;51.72;101805.11;105526;1254;60495;-46
2023/09/26 10:26:44;;;;;;;16.00;10.40;;;;;;;24.55;51.67;101802.65;105356;1256;66690;-47
2023/09/26 10:29:28;;;;;;;16.40;10.60;;;;;;;24.66;50.91;101796.20;106209;1251;64045;-47
2023/09/26 10:31:56;;;;;;;13.00;10.70;;;;;;;24.75;49.61;101793.98;106710;1256;64492;-59
2023/09/26 10:34:27;;;;;;;12.10;10.10;;;;;;;24.79;49.03;101789.33;105135;1257;379450;-58
2023/09/26 10:38:20;;;;;;;16.90;11.30;;;;;;;24.71;50.29;101786.29;102129;1292;600342;-55
2023/09/26 10:40:48;;;;;;;13.30;10.20;;;;;;;25.01;50.08;101788.10;104077;1266;59122;-56
2023/09/26 10:43:15;;;;;;;14.90;10.80;;;;;;;25.13;49.80;101783.84;104066;1266;59971;-56
2023/09/26 10:45:46;;;;;;;18.00;10.80;;;;;;;25.19;49.59;101782.15;104188;1267;63439;-56
2023/09/26 10:48:19;;;;;;;14.90;10.90;;;;;;;25.28;49.55;101780.55;108306;1265;63246;-57
2023/09/26 10:50:47;;;;;;;16.80;11.10;;;;;;;25.39;49.31;101776.02;108085;1266;259243;-57
2023/09/26 10:53:14;;;;;;;12.60;9.80;;;;;;;25.50;49.13;101775.38;108528;1263;58543;-57
2023/09/26 10:55:42;;;;;;;15.40;10.50;;;;;;;25.63;48.89;101775.95;106424;1263;59282;-56
2023/09/26 10:58:09;;;;;;;14.10;10.70;;;;;;;25.74;48.15;101774.46;104265;1266;63268;-57
2023/09/26 11:00:37;;;;;;;14.70;10.70;;;;;;;25.79;47.66;101776.35;105040;1253;60469;-56
2023/09/26 11:03:04;;;;;;;14.90;10.90;;;;;;;25.81;47.13;101773.22;105041;1256;63752;-57
2023/09/26 11:05:33;;;;;;;12.30;10.20;;;;;;;25.81;46.34;101770.77;105145;1255;60019;-56
2023/09/26 11:08:01;;;;;;;10.90;9.30;;;;;;;25.77;46.46;101771.02;105037;1255;60991;-56